sensor_id;sensor_type;location;lat;lon;timestamp;P1;durP1;ratioP1;P2;durP2;ratioP2
56455;SDS011;42354;53.218;6.564;2023-04-08T00:00:57;40.00;;;20.63;;
56455;SDS011;42354;53.218;6.564;2023-04-08T00:03:22;30.40;;;16.85;;
56455;SDS011;42354;53.218;6.564;2023-04-08T00:05:48;33.13;;;18.35;;
56455;SDS011;42354;53.218;6.564;2023-04-08T00:08:13;30.30;;;17.00;;
56455;SDS011;42354;53.218;6.564;2023-04-08T00:10:38;29.38;;;16.70;;
56455;SDS011;42354;53.218;6.564;2023-04-08T00:13:04;30.73;;;17.48;;
56455;SDS011;42354;53.218;6.564;2023-04-08T00:15:30;26.67;;;16.27;;
56455;SDS011;42354;53.218;6.564;2023-04-08T00:17:55;28.63;;;16.42;;
56455;SDS011;42354;53.218;6.564;2023-04-08T00:20:21;32.65;;;17.15;;
56455;SDS011;42354;53.218;6.564;2023-04-08T00:22:50;33.40;;;17.30;;
56455;SDS011;42354;53.218;6.564;2023-04-08T00:25:17;35.42;;;18.90;;
56455;SDS011;42354;53.218;6.564;2023-04-08T00:27:42;35.03;;;18.27;;
56455;SDS011;42354;53.218;6.564;2023-04-08T00:30:07;43.97;;;23.50;;
56455;SDS011;42354;53.218;6.564;2023-04-08T00:32:34;33.47;;;20.38;;
56455;SDS011;42354;53.218;6.564;2023-04-08T00:34:59;33.78;;;18.02;;
56455;SDS011;42354;53.218;6.564;2023-04-08T00:37:24;31.95;;;17.90;;
56455;SDS011;42354;53.218;6.564;2023-04-08T00:39:50;33.45;;;18.27;;
56455;SDS011;42354;53.218;6.564;2023-04-08T00:42:17;33.20;;;17.70;;
56455;SDS011;42354;53.218;6.564;2023-04-08T00:44:43;34.92;;;18.85;;
56455;SDS011;42354;53.218;6.564;2023-04-08T00:47:17;32.03;;;16.85;;
56455;SDS011;42354;53.218;6.564;2023-04-08T00:49:43;34.20;;;18.65;;
56455;SDS011;42354;53.218;6.564;2023-04-08T00:52:10;43.55;;;21.75;;
56455;SDS011;42354;53.218;6.564;2023-04-08T00:54:36;50.75;;;25.92;;
56455;SDS011;42354;53.218;6.564;2023-04-08T00:57:04;45.60;;;25.08;;
56455;SDS011;42354;53.218;6.564;2023-04-08T00:59:30;43.42;;;21.80;;
56455;SDS011;42354;53.218;6.564;2023-04-08T01:05:01;41.00;;;22.80;;
56455;SDS011;42354;53.218;6.564;2023-04-08T01:07:33;45.80;;;24.20;;
56455;SDS011;42354;53.218;6.564;2023-04-08T01:10:02;44.75;;;24.42;;
56455;SDS011;42354;53.218;6.564;2023-04-08T01:12:32;45.17;;;23.20;;
56455;SDS011;42354;53.218;6.564;2023-04-08T01:15:05;42.75;;;23.35;;
56455;SDS011;42354;53.218;6.564;2023-04-08T01:17:33;41.40;;;21.73;;
56455;SDS011;42354;53.218;6.564;2023-04-08T01:20:01;60.53;;;29.55;;
56455;SDS011;42354;53.218;6.564;2023-04-08T01:25:26;44.65;;;23.58;;
56455;SDS011;42354;53.218;6.564;2023-04-08T01:28:02;40.13;;;22.00;;
56455;SDS011;42354;53.218;6.564;2023-04-08T01:30:31;58.20;;;28.80;;
56455;SDS011;42354;53.218;6.564;2023-04-08T01:32:58;56.80;;;28.83;;
56455;SDS011;42354;53.218;6.564;2023-04-08T01:35:27;48.70;;;24.92;;
56455;SDS011;42354;53.218;6.564;2023-04-08T01:37:55;49.47;;;25.25;;
56455;SDS011;42354;53.218;6.564;2023-04-08T01:40:21;43.88;;;23.70;;
56455;SDS011;42354;53.218;6.564;2023-04-08T01:42:47;46.38;;;24.52;;
56455;SDS011;42354;53.218;6.564;2023-04-08T01:45:14;54.03;;;27.98;;
56455;SDS011;42354;53.218;6.564;2023-04-08T01:47:41;54.00;;;24.48;;
56455;SDS011;42354;53.218;6.564;2023-04-08T01:50:09;49.45;;;25.25;;
56455;SDS011;42354;53.218;6.564;2023-04-08T01:52:36;44.75;;;24.38;;
56455;SDS011;42354;53.218;6.564;2023-04-08T01:55:03;51.35;;;26.30;;
56455;SDS011;42354;53.218;6.564;2023-04-08T01:57:30;46.25;;;22.67;;
56455;SDS011;42354;53.218;6.564;2023-04-08T02:00:01;46.90;;;24.98;;
56455;SDS011;42354;53.218;6.564;2023-04-08T02:02:31;46.58;;;25.55;;
56455;SDS011;42354;53.218;6.564;2023-04-08T02:05:00;53.00;;;23.92;;
56455;SDS011;42354;53.218;6.564;2023-04-08T02:07:25;49.17;;;26.75;;
56455;SDS011;42354;53.218;6.564;2023-04-08T02:09:50;59.63;;;28.08;;
56455;SDS011;42354;53.218;6.564;2023-04-08T02:12:16;56.65;;;27.13;;
56455;SDS011;42354;53.218;6.564;2023-04-08T02:14:41;56.05;;;25.92;;
56455;SDS011;42354;53.218;6.564;2023-04-08T02:17:11;54.13;;;28.13;;
56455;SDS011;42354;53.218;6.564;2023-04-08T02:19:43;61.63;;;28.02;;
56455;SDS011;42354;53.218;6.564;2023-04-08T02:22:17;50.38;;;26.10;;
56455;SDS011;42354;53.218;6.564;2023-04-08T02:24:47;56.50;;;25.83;;
56455;SDS011;42354;53.218;6.564;2023-04-08T02:27:14;51.65;;;26.02;;
56455;SDS011;42354;53.218;6.564;2023-04-08T02:29:41;49.55;;;24.13;;
56455;SDS011;42354;53.218;6.564;2023-04-08T02:32:07;50.58;;;23.95;;
56455;SDS011;42354;53.218;6.564;2023-04-08T02:34:37;45.42;;;23.38;;
56455;SDS011;42354;53.218;6.564;2023-04-08T02:37:04;48.90;;;24.70;;
56455;SDS011;42354;53.218;6.564;2023-04-08T02:39:33;48.55;;;23.67;;
56455;SDS011;42354;53.218;6.564;2023-04-08T02:41:58;47.78;;;23.90;;
56455;SDS011;42354;53.218;6.564;2023-04-08T02:44:24;46.88;;;23.88;;
56455;SDS011;42354;53.218;6.564;2023-04-08T02:46:49;48.75;;;24.88;;
56455;SDS011;42354;53.218;6.564;2023-04-08T02:49:15;47.63;;;24.40;;
56455;SDS011;42354;53.218;6.564;2023-04-08T02:51:40;57.22;;;28.30;;
56455;SDS011;42354;53.218;6.564;2023-04-08T02:54:05;54.92;;;24.63;;
56455;SDS011;42354;53.218;6.564;2023-04-08T02:56:31;47.25;;;23.58;;
56455;SDS011;42354;53.218;6.564;2023-04-08T02:58:56;45.28;;;23.17;;
56455;SDS011;42354;53.218;6.564;2023-04-08T03:01:21;44.97;;;23.60;;
56455;SDS011;42354;53.218;6.564;2023-04-08T03:03:47;46.58;;;24.08;;
56455;SDS011;42354;53.218;6.564;2023-04-08T03:06:12;44.72;;;23.35;;
56455;SDS011;42354;53.218;6.564;2023-04-08T03:08:38;44.45;;;22.52;;
56455;SDS011;42354;53.218;6.564;2023-04-08T03:11:03;43.20;;;23.50;;
56455;SDS011;42354;53.218;6.564;2023-04-08T03:13:28;44.25;;;23.52;;
56455;SDS011;42354;53.218;6.564;2023-04-08T03:15:54;48.80;;;23.58;;
56455;SDS011;42354;53.218;6.564;2023-04-08T03:18:19;45.92;;;24.23;;
56455;SDS011;42354;53.218;6.564;2023-04-08T03:20:45;45.50;;;24.08;;
56455;SDS011;42354;53.218;6.564;2023-04-08T03:23:11;48.15;;;23.83;;
56455;SDS011;42354;53.218;6.564;2023-04-08T03:25:36;49.38;;;25.08;;
56455;SDS011;42354;53.218;6.564;2023-04-08T03:28:01;47.80;;;24.80;;
56455;SDS011;42354;53.218;6.564;2023-04-08T03:30:27;52.92;;;25.45;;
56455;SDS011;42354;53.218;6.564;2023-04-08T03:32:52;52.45;;;26.42;;
56455;SDS011;42354;53.218;6.564;2023-04-08T03:35:19;53.38;;;26.25;;
56455;SDS011;42354;53.218;6.564;2023-04-08T03:37:44;52.05;;;25.77;;
56455;SDS011;42354;53.218;6.564;2023-04-08T03:40:11;52.08;;;25.35;;
56455;SDS011;42354;53.218;6.564;2023-04-08T03:42:36;50.97;;;26.70;;
56455;SDS011;42354;53.218;6.564;2023-04-08T03:45:02;53.95;;;26.75;;
56455;SDS011;42354;53.218;6.564;2023-04-08T03:47:27;54.58;;;25.95;;
56455;SDS011;42354;53.218;6.564;2023-04-08T03:49:53;55.15;;;27.90;;
56455;SDS011;42354;53.218;6.564;2023-04-08T03:52:18;55.85;;;27.85;;
56455;SDS011;42354;53.218;6.564;2023-04-08T03:54:44;52.55;;;26.83;;
56455;SDS011;42354;53.218;6.564;2023-04-08T03:57:09;54.65;;;27.50;;
56455;SDS011;42354;53.218;6.564;2023-04-08T03:59:36;52.17;;;27.05;;
56455;SDS011;42354;53.218;6.564;2023-04-08T04:02:03;56.95;;;28.67;;
56455;SDS011;42354;53.218;6.564;2023-04-08T04:04:29;56.65;;;27.25;;
56455;SDS011;42354;53.218;6.564;2023-04-08T04:06:54;51.10;;;26.50;;
56455;SDS011;42354;53.218;6.564;2023-04-08T04:09:20;59.38;;;29.45;;
56455;SDS011;42354;53.218;6.564;2023-04-08T04:11:45;56.67;;;26.20;;
56455;SDS011;42354;53.218;6.564;2023-04-08T04:14:11;55.85;;;27.40;;
56455;SDS011;42354;53.218;6.564;2023-04-08T04:16:36;55.88;;;27.83;;
56455;SDS011;42354;53.218;6.564;2023-04-08T04:19:01;54.78;;;27.88;;
56455;SDS011;42354;53.218;6.564;2023-04-08T04:21:27;56.10;;;28.23;;
56455;SDS011;42354;53.218;6.564;2023-04-08T04:23:52;54.88;;;27.55;;
56455;SDS011;42354;53.218;6.564;2023-04-08T04:26:17;59.22;;;27.77;;
56455;SDS011;42354;53.218;6.564;2023-04-08T04:28:43;52.13;;;26.80;;
56455;SDS011;42354;53.218;6.564;2023-04-08T04:31:16;59.08;;;28.08;;
56455;SDS011;42354;53.218;6.564;2023-04-08T04:33:42;54.95;;;27.02;;
56455;SDS011;42354;53.218;6.564;2023-04-08T04:36:08;53.58;;;25.83;;
56455;SDS011;42354;53.218;6.564;2023-04-08T04:38:33;58.67;;;29.63;;
56455;SDS011;42354;53.218;6.564;2023-04-08T04:40:58;55.78;;;27.65;;
56455;SDS011;42354;53.218;6.564;2023-04-08T04:43:25;52.95;;;26.90;;
56455;SDS011;42354;53.218;6.564;2023-04-08T04:45:50;59.45;;;28.10;;
56455;SDS011;42354;53.218;6.564;2023-04-08T04:48:16;59.22;;;27.60;;
56455;SDS011;42354;53.218;6.564;2023-04-08T04:50:41;56.47;;;27.48;;
56455;SDS011;42354;53.218;6.564;2023-04-08T04:53:07;55.60;;;27.52;;
56455;SDS011;42354;53.218;6.564;2023-04-08T04:55:32;56.22;;;27.88;;
56455;SDS011;42354;53.218;6.564;2023-04-08T04:57:58;57.63;;;28.88;;
56455;SDS011;42354;53.218;6.564;2023-04-08T05:00:23;56.15;;;27.80;;
56455;SDS011;42354;53.218;6.564;2023-04-08T05:02:48;57.22;;;28.67;;
56455;SDS011;42354;53.218;6.564;2023-04-08T05:05:14;59.75;;;28.25;;
56455;SDS011;42354;53.218;6.564;2023-04-08T05:07:39;55.42;;;27.27;;
56455;SDS011;42354;53.218;6.564;2023-04-08T05:10:05;59.13;;;28.17;;
56455;SDS011;42354;53.218;6.564;2023-04-08T05:12:30;61.65;;;28.52;;
56455;SDS011;42354;53.218;6.564;2023-04-08T05:14:59;61.88;;;29.48;;
56455;SDS011;42354;53.218;6.564;2023-04-08T05:17:24;55.88;;;27.95;;
56455;SDS011;42354;53.218;6.564;2023-04-08T05:19:50;66.95;;;29.17;;
56455;SDS011;42354;53.218;6.564;2023-04-08T05:22:17;59.13;;;27.45;;
56455;SDS011;42354;53.218;6.564;2023-04-08T05:24:42;58.10;;;28.75;;
56455;SDS011;42354;53.218;6.564;2023-04-08T05:27:08;64.55;;;29.35;;
56455;SDS011;42354;53.218;6.564;2023-04-08T05:29:35;64.85;;;28.45;;
56455;SDS011;42354;53.218;6.564;2023-04-08T05:32:00;57.78;;;28.13;;
56455;SDS011;42354;53.218;6.564;2023-04-08T05:34:25;62.15;;;28.77;;
56455;SDS011;42354;53.218;6.564;2023-04-08T05:36:51;58.40;;;28.58;;
56455;SDS011;42354;53.218;6.564;2023-04-08T05:39:17;60.00;;;27.75;;
56455;SDS011;42354;53.218;6.564;2023-04-08T05:41:43;59.85;;;28.73;;
56455;SDS011;42354;53.218;6.564;2023-04-08T05:44:09;55.47;;;27.33;;
56455;SDS011;42354;53.218;6.564;2023-04-08T05:46:34;58.22;;;28.17;;
56455;SDS011;42354;53.218;6.564;2023-04-08T05:49:00;60.33;;;28.17;;
56455;SDS011;42354;53.218;6.564;2023-04-08T05:51:25;53.65;;;27.60;;
56455;SDS011;42354;53.218;6.564;2023-04-08T05:53:50;58.88;;;27.40;;
56455;SDS011;42354;53.218;6.564;2023-04-08T05:56:16;55.35;;;26.50;;
56455;SDS011;42354;53.218;6.564;2023-04-08T05:58:41;55.17;;;26.20;;
56455;SDS011;42354;53.218;6.564;2023-04-08T06:01:06;52.53;;;26.23;;
56455;SDS011;42354;53.218;6.564;2023-04-08T06:03:32;53.63;;;26.50;;
56455;SDS011;42354;53.218;6.564;2023-04-08T06:05:57;52.33;;;26.63;;
56455;SDS011;42354;53.218;6.564;2023-04-08T06:08:23;50.47;;;24.27;;
56455;SDS011;42354;53.218;6.564;2023-04-08T06:10:49;52.28;;;26.27;;
56455;SDS011;42354;53.218;6.564;2023-04-08T06:13:15;50.15;;;25.08;;
56455;SDS011;42354;53.218;6.564;2023-04-08T06:15:41;50.70;;;25.40;;
56455;SDS011;42354;53.218;6.564;2023-04-08T06:18:06;51.05;;;25.45;;
56455;SDS011;42354;53.218;6.564;2023-04-08T06:20:31;48.95;;;25.30;;
56455;SDS011;42354;53.218;6.564;2023-04-08T06:22:57;48.47;;;24.52;;
56455;SDS011;42354;53.218;6.564;2023-04-08T06:25:22;46.15;;;23.33;;
56455;SDS011;42354;53.218;6.564;2023-04-08T06:27:47;47.05;;;23.50;;
56455;SDS011;42354;53.218;6.564;2023-04-08T06:30:13;44.42;;;22.77;;
56455;SDS011;42354;53.218;6.564;2023-04-08T06:32:38;44.30;;;23.42;;
56455;SDS011;42354;53.218;6.564;2023-04-08T06:35:04;41.65;;;21.23;;
56455;SDS011;42354;53.218;6.564;2023-04-08T06:37:30;38.22;;;21.77;;
56455;SDS011;42354;53.218;6.564;2023-04-08T06:39:55;40.30;;;21.25;;
56455;SDS011;42354;53.218;6.564;2023-04-08T06:42:21;40.95;;;21.58;;
56455;SDS011;42354;53.218;6.564;2023-04-08T06:44:46;40.05;;;22.10;;
56455;SDS011;42354;53.218;6.564;2023-04-08T06:47:12;41.45;;;20.33;;
56455;SDS011;42354;53.218;6.564;2023-04-08T06:49:37;38.17;;;20.58;;
56455;SDS011;42354;53.218;6.564;2023-04-08T06:52:02;38.17;;;19.23;;
56455;SDS011;42354;53.218;6.564;2023-04-08T06:54:28;36.67;;;20.35;;
56455;SDS011;42354;53.218;6.564;2023-04-08T06:56:53;33.55;;;18.60;;
56455;SDS011;42354;53.218;6.564;2023-04-08T06:59:19;33.50;;;18.92;;
56455;SDS011;42354;53.218;6.564;2023-04-08T07:01:44;37.35;;;19.02;;
56455;SDS011;42354;53.218;6.564;2023-04-08T07:04:10;34.75;;;18.10;;
56455;SDS011;42354;53.218;6.564;2023-04-08T07:06:36;34.22;;;18.30;;
56455;SDS011;42354;53.218;6.564;2023-04-08T07:09:01;30.50;;;17.85;;
56455;SDS011;42354;53.218;6.564;2023-04-08T07:11:27;33.38;;;18.45;;
56455;SDS011;42354;53.218;6.564;2023-04-08T07:13:53;33.40;;;18.85;;
56455;SDS011;42354;53.218;6.564;2023-04-08T07:16:19;28.73;;;16.52;;
56455;SDS011;42354;53.218;6.564;2023-04-08T07:18:44;30.88;;;18.25;;
56455;SDS011;42354;53.218;6.564;2023-04-08T07:21:10;28.25;;;16.40;;
56455;SDS011;42354;53.218;6.564;2023-04-08T07:23:36;29.10;;;16.92;;
56455;SDS011;42354;53.218;6.564;2023-04-08T07:26:02;26.40;;;15.38;;
56455;SDS011;42354;53.218;6.564;2023-04-08T07:28:31;26.80;;;16.50;;
56455;SDS011;42354;53.218;6.564;2023-04-08T07:31:04;28.20;;;15.35;;
56455;SDS011;42354;53.218;6.564;2023-04-08T07:33:33;28.60;;;15.80;;
56455;SDS011;42354;53.218;6.564;2023-04-08T07:35:58;26.92;;;15.98;;
56455;SDS011;42354;53.218;6.564;2023-04-08T07:38:23;25.40;;;15.27;;
56455;SDS011;42354;53.218;6.564;2023-04-08T07:40:49;25.67;;;14.82;;
56455;SDS011;42354;53.218;6.564;2023-04-08T07:43:14;27.23;;;15.45;;
56455;SDS011;42354;53.218;6.564;2023-04-08T07:45:39;24.70;;;14.88;;
56455;SDS011;42354;53.218;6.564;2023-04-08T07:48:05;28.92;;;16.58;;
56455;SDS011;42354;53.218;6.564;2023-04-08T07:50:30;29.05;;;17.70;;
56455;SDS011;42354;53.218;6.564;2023-04-08T07:52:56;26.27;;;15.93;;
56455;SDS011;42354;53.218;6.564;2023-04-08T07:55:22;25.73;;;15.35;;
56455;SDS011;42354;53.218;6.564;2023-04-08T07:57:48;25.27;;;15.55;;
56455;SDS011;42354;53.218;6.564;2023-04-08T08:00:13;26.98;;;15.75;;
56455;SDS011;42354;53.218;6.564;2023-04-08T08:02:46;25.45;;;15.52;;
56455;SDS011;42354;53.218;6.564;2023-04-08T08:05:12;25.98;;;15.88;;
56455;SDS011;42354;53.218;6.564;2023-04-08T08:07:37;28.00;;;16.05;;
56455;SDS011;42354;53.218;6.564;2023-04-08T08:10:03;27.75;;;15.38;;
56455;SDS011;42354;53.218;6.564;2023-04-08T08:12:28;25.40;;;16.13;;
56455;SDS011;42354;53.218;6.564;2023-04-08T08:14:54;25.63;;;15.70;;
56455;SDS011;42354;53.218;6.564;2023-04-08T08:17:23;26.95;;;15.52;;
56455;SDS011;42354;53.218;6.564;2023-04-08T08:19:48;24.83;;;14.30;;
56455;SDS011;42354;53.218;6.564;2023-04-08T08:22:14;22.88;;;13.05;;
56455;SDS011;42354;53.218;6.564;2023-04-08T08:24:40;24.80;;;15.07;;
56455;SDS011;42354;53.218;6.564;2023-04-08T08:27:08;29.08;;;15.63;;
56455;SDS011;42354;53.218;6.564;2023-04-08T08:29:35;22.77;;;14.88;;
56455;SDS011;42354;53.218;6.564;2023-04-08T08:32:01;27.73;;;15.80;;
56455;SDS011;42354;53.218;6.564;2023-04-08T08:34:28;26.95;;;15.63;;
56455;SDS011;42354;53.218;6.564;2023-04-08T08:36:53;24.88;;;14.82;;
56455;SDS011;42354;53.218;6.564;2023-04-08T08:39:20;20.65;;;13.98;;
56455;SDS011;42354;53.218;6.564;2023-04-08T08:41:46;27.35;;;16.00;;
56455;SDS011;42354;53.218;6.564;2023-04-08T08:44:12;28.42;;;16.85;;
56455;SDS011;42354;53.218;6.564;2023-04-08T08:46:42;30.55;;;16.92;;
56455;SDS011;42354;53.218;6.564;2023-04-08T08:49:09;31.20;;;17.40;;
56455;SDS011;42354;53.218;6.564;2023-04-08T08:51:34;28.85;;;16.60;;
56455;SDS011;42354;53.218;6.564;2023-04-08T08:54:03;29.25;;;17.40;;
56455;SDS011;42354;53.218;6.564;2023-04-08T08:56:29;29.23;;;17.08;;
56455;SDS011;42354;53.218;6.564;2023-04-08T08:58:58;33.22;;;16.15;;
56455;SDS011;42354;53.218;6.564;2023-04-08T09:01:30;28.67;;;16.80;;
56455;SDS011;42354;53.218;6.564;2023-04-08T09:06:39;31.33;;;17.03;;
56455;SDS011;42354;53.218;6.564;2023-04-08T09:09:05;29.42;;;16.48;;
56455;SDS011;42354;53.218;6.564;2023-04-08T09:11:34;29.95;;;16.63;;
56455;SDS011;42354;53.218;6.564;2023-04-08T09:14:01;30.38;;;15.70;;
56455;SDS011;42354;53.218;6.564;2023-04-08T09:16:28;28.23;;;16.33;;
56455;SDS011;42354;53.218;6.564;2023-04-08T09:18:56;24.92;;;15.18;;
56455;SDS011;42354;53.218;6.564;2023-04-08T09:21:33;25.35;;;14.30;;
56455;SDS011;42354;53.218;6.564;2023-04-08T09:23:59;25.80;;;14.70;;
56455;SDS011;42354;53.218;6.564;2023-04-08T09:26:25;23.50;;;13.18;;
56455;SDS011;42354;53.218;6.564;2023-04-08T09:31:37;25.35;;;13.40;;
56455;SDS011;42354;53.218;6.564;2023-04-08T09:34:10;20.75;;;12.23;;
56455;SDS011;42354;53.218;6.564;2023-04-08T09:36:37;19.90;;;12.52;;
56455;SDS011;42354;53.218;6.564;2023-04-08T09:39:03;22.00;;;12.85;;
56455;SDS011;42354;53.218;6.564;2023-04-08T09:41:29;21.85;;;12.60;;
56455;SDS011;42354;53.218;6.564;2023-04-08T09:43:58;22.90;;;12.77;;
56455;SDS011;42354;53.218;6.564;2023-04-08T09:49:18;27.63;;;14.98;;
56455;SDS011;42354;53.218;6.564;2023-04-08T09:57:39;22.08;;;12.52;;
56455;SDS011;42354;53.218;6.564;2023-04-08T10:02:44;20.35;;;12.48;;
56455;SDS011;42354;53.218;6.564;2023-04-08T10:05:22;23.80;;;13.60;;
56455;SDS011;42354;53.218;6.564;2023-04-08T10:07:49;23.40;;;13.57;;
56455;SDS011;42354;53.218;6.564;2023-04-08T10:10:15;22.40;;;13.55;;
56455;SDS011;42354;53.218;6.564;2023-04-08T10:12:42;26.75;;;13.82;;
56455;SDS011;42354;53.218;6.564;2023-04-08T10:15:21;26.35;;;13.65;;
56455;SDS011;42354;53.218;6.564;2023-04-08T10:27:58;26.23;;;15.27;;
56455;SDS011;42354;53.218;6.564;2023-04-08T10:32:54;27.08;;;15.57;;
56455;SDS011;42354;53.218;6.564;2023-04-08T10:37:56;26.85;;;15.48;;
56455;SDS011;42354;53.218;6.564;2023-04-08T10:40:22;25.10;;;14.50;;
56455;SDS011;42354;53.218;6.564;2023-04-08T10:42:53;24.40;;;13.90;;
56455;SDS011;42354;53.218;6.564;2023-04-08T10:45:20;27.38;;;14.57;;
56455;SDS011;42354;53.218;6.564;2023-04-08T10:47:47;28.05;;;14.93;;
56455;SDS011;42354;53.218;6.564;2023-04-08T10:50:14;24.30;;;14.35;;
56455;SDS011;42354;53.218;6.564;2023-04-08T10:52:47;28.48;;;14.68;;
56455;SDS011;42354;53.218;6.564;2023-04-08T10:55:13;27.25;;;14.38;;
56455;SDS011;42354;53.218;6.564;2023-04-08T10:57:40;27.85;;;15.55;;
56455;SDS011;42354;53.218;6.564;2023-04-08T11:00:09;29.88;;;14.85;;
56455;SDS011;42354;53.218;6.564;2023-04-08T11:02:39;27.45;;;15.75;;
56455;SDS011;42354;53.218;6.564;2023-04-08T11:05:04;27.10;;;14.82;;
56455;SDS011;42354;53.218;6.564;2023-04-08T11:07:31;30.17;;;16.25;;
56455;SDS011;42354;53.218;6.564;2023-04-08T11:09:56;28.08;;;15.52;;
56455;SDS011;42354;53.218;6.564;2023-04-08T11:12:27;34.10;;;18.80;;
56455;SDS011;42354;53.218;6.564;2023-04-08T11:14:53;35.83;;;19.30;;
56455;SDS011;42354;53.218;6.564;2023-04-08T11:17:18;31.63;;;18.27;;
56455;SDS011;42354;53.218;6.564;2023-04-08T11:19:44;38.42;;;19.30;;
56455;SDS011;42354;53.218;6.564;2023-04-08T11:22:11;37.78;;;19.95;;
56455;SDS011;42354;53.218;6.564;2023-04-08T11:24:36;39.08;;;19.85;;
56455;SDS011;42354;53.218;6.564;2023-04-08T11:27:03;38.70;;;18.98;;
56455;SDS011;42354;53.218;6.564;2023-04-08T11:29:30;43.70;;;20.08;;
56455;SDS011;42354;53.218;6.564;2023-04-08T11:31:56;42.45;;;20.33;;
56455;SDS011;42354;53.218;6.564;2023-04-08T11:34:22;42.50;;;20.08;;
56455;SDS011;42354;53.218;6.564;2023-04-08T11:36:50;42.80;;;18.80;;
56455;SDS011;42354;53.218;6.564;2023-04-08T11:39:16;35.22;;;18.33;;
56455;SDS011;42354;53.218;6.564;2023-04-08T11:41:41;37.50;;;18.27;;
56455;SDS011;42354;53.218;6.564;2023-04-08T11:44:08;32.78;;;16.35;;
56455;SDS011;42354;53.218;6.564;2023-04-08T11:46:35;32.97;;;18.65;;
56455;SDS011;42354;53.218;6.564;2023-04-08T11:49:02;33.92;;;18.10;;
56455;SDS011;42354;53.218;6.564;2023-04-08T11:51:30;31.33;;;17.92;;
56455;SDS011;42354;53.218;6.564;2023-04-08T11:53:56;36.05;;;18.30;;
56455;SDS011;42354;53.218;6.564;2023-04-08T11:56:22;34.75;;;18.38;;
56455;SDS011;42354;53.218;6.564;2023-04-08T11:58:48;33.53;;;18.40;;
56455;SDS011;42354;53.218;6.564;2023-04-08T12:01:14;36.28;;;19.23;;
56455;SDS011;42354;53.218;6.564;2023-04-08T12:03:52;36.17;;;19.23;;
56455;SDS011;42354;53.218;6.564;2023-04-08T12:06:19;34.63;;;19.08;;
56455;SDS011;42354;53.218;6.564;2023-04-08T12:08:45;36.25;;;19.70;;
56455;SDS011;42354;53.218;6.564;2023-04-08T12:11:10;38.83;;;21.23;;
56455;SDS011;42354;53.218;6.564;2023-04-08T12:13:36;35.38;;;19.92;;
56455;SDS011;42354;53.218;6.564;2023-04-08T12:16:02;33.47;;;20.02;;
56455;SDS011;42354;53.218;6.564;2023-04-08T12:18:28;36.88;;;20.00;;
56455;SDS011;42354;53.218;6.564;2023-04-08T12:20:53;36.50;;;20.50;;
56455;SDS011;42354;53.218;6.564;2023-04-08T12:23:19;38.08;;;19.17;;
56455;SDS011;42354;53.218;6.564;2023-04-08T12:25:45;31.80;;;18.60;;
56455;SDS011;42354;53.218;6.564;2023-04-08T12:28:10;33.60;;;18.25;;
56455;SDS011;42354;53.218;6.564;2023-04-08T12:30:36;33.50;;;20.23;;
56455;SDS011;42354;53.218;6.564;2023-04-08T12:33:02;38.00;;;20.00;;
56455;SDS011;42354;53.218;6.564;2023-04-08T12:35:27;38.45;;;21.95;;
56455;SDS011;42354;53.218;6.564;2023-04-08T12:37:52;35.78;;;20.45;;
56455;SDS011;42354;53.218;6.564;2023-04-08T12:40:19;38.80;;;20.13;;
56455;SDS011;42354;53.218;6.564;2023-04-08T12:42:44;32.58;;;20.17;;
56455;SDS011;42354;53.218;6.564;2023-04-08T12:45:11;36.65;;;19.67;;
56455;SDS011;42354;53.218;6.564;2023-04-08T12:47:37;32.67;;;18.67;;
56455;SDS011;42354;53.218;6.564;2023-04-08T12:50:02;34.08;;;18.88;;
56455;SDS011;42354;53.218;6.564;2023-04-08T12:52:29;26.83;;;15.25;;
56455;SDS011;42354;53.218;6.564;2023-04-08T12:54:54;26.15;;;14.65;;
56455;SDS011;42354;53.218;6.564;2023-04-08T12:57:20;20.88;;;13.48;;
56455;SDS011;42354;53.218;6.564;2023-04-08T12:59:45;22.60;;;13.95;;
56455;SDS011;42354;53.218;6.564;2023-04-08T13:02:10;24.40;;;13.50;;
56455;SDS011;42354;53.218;6.564;2023-04-08T13:04:36;21.70;;;13.88;;
56455;SDS011;42354;53.218;6.564;2023-04-08T13:07:01;24.27;;;14.80;;
56455;SDS011;42354;53.218;6.564;2023-04-08T13:09:28;20.50;;;12.63;;
56455;SDS011;42354;53.218;6.564;2023-04-08T13:11:54;24.95;;;14.25;;
56455;SDS011;42354;53.218;6.564;2023-04-08T13:14:20;21.17;;;14.25;;
56455;SDS011;42354;53.218;6.564;2023-04-08T13:16:45;23.52;;;13.98;;
56455;SDS011;42354;53.218;6.564;2023-04-08T13:19:11;22.10;;;13.93;;
56455;SDS011;42354;53.218;6.564;2023-04-08T13:21:37;21.50;;;13.10;;
56455;SDS011;42354;53.218;6.564;2023-04-08T13:24:02;21.73;;;13.25;;
56455;SDS011;42354;53.218;6.564;2023-04-08T13:26:29;20.73;;;14.48;;
56455;SDS011;42354;53.218;6.564;2023-04-08T13:28:56;21.02;;;13.52;;
56455;SDS011;42354;53.218;6.564;2023-04-08T13:31:21;24.83;;;14.73;;
56455;SDS011;42354;53.218;6.564;2023-04-08T13:33:47;21.25;;;13.63;;
56455;SDS011;42354;53.218;6.564;2023-04-08T13:36:12;19.67;;;13.82;;
56455;SDS011;42354;53.218;6.564;2023-04-08T13:38:37;24.60;;;15.15;;
56455;SDS011;42354;53.218;6.564;2023-04-08T13:41:03;27.77;;;14.98;;
56455;SDS011;42354;53.218;6.564;2023-04-08T13:43:28;24.08;;;15.85;;
56455;SDS011;42354;53.218;6.564;2023-04-08T13:45:54;25.98;;;15.45;;
56455;SDS011;42354;53.218;6.564;2023-04-08T13:48:19;21.38;;;14.48;;
56455;SDS011;42354;53.218;6.564;2023-04-08T13:50:46;25.95;;;14.60;;
56455;SDS011;42354;53.218;6.564;2023-04-08T13:53:12;23.85;;;16.02;;
56455;SDS011;42354;53.218;6.564;2023-04-08T13:55:38;24.77;;;16.45;;
56455;SDS011;42354;53.218;6.564;2023-04-08T13:58:03;21.42;;;14.95;;
56455;SDS011;42354;53.218;6.564;2023-04-08T14:00:28;22.38;;;15.57;;
56455;SDS011;42354;53.218;6.564;2023-04-08T14:02:55;24.00;;;16.48;;
56455;SDS011;42354;53.218;6.564;2023-04-08T14:05:21;32.47;;;17.65;;
56455;SDS011;42354;53.218;6.564;2023-04-08T14:07:47;26.83;;;16.65;;
56455;SDS011;42354;53.218;6.564;2023-04-08T14:10:13;26.90;;;16.27;;
56455;SDS011;42354;53.218;6.564;2023-04-08T14:12:41;25.70;;;17.27;;
56455;SDS011;42354;53.218;6.564;2023-04-08T14:15:07;25.33;;;16.88;;
56455;SDS011;42354;53.218;6.564;2023-04-08T14:17:32;29.90;;;18.05;;
56455;SDS011;42354;53.218;6.564;2023-04-08T14:20:00;24.88;;;17.42;;
56455;SDS011;42354;53.218;6.564;2023-04-08T14:22:25;27.20;;;18.08;;
56455;SDS011;42354;53.218;6.564;2023-04-08T14:24:51;45.63;;;37.67;;
56455;SDS011;42354;53.218;6.564;2023-04-08T14:27:16;26.05;;;18.02;;
56455;SDS011;42354;53.218;6.564;2023-04-08T14:29:41;27.80;;;18.15;;
56455;SDS011;42354;53.218;6.564;2023-04-08T14:32:07;25.27;;;17.40;;
56455;SDS011;42354;53.218;6.564;2023-04-08T14:34:32;24.73;;;17.20;;
56455;SDS011;42354;53.218;6.564;2023-04-08T14:36:58;25.67;;;16.90;;
56455;SDS011;42354;53.218;6.564;2023-04-08T14:39:23;24.13;;;17.48;;
56455;SDS011;42354;53.218;6.564;2023-04-08T14:41:48;23.70;;;17.90;;
56455;SDS011;42354;53.218;6.564;2023-04-08T14:44:14;24.05;;;17.98;;
56455;SDS011;42354;53.218;6.564;2023-04-08T14:46:39;24.55;;;18.38;;
56455;SDS011;42354;53.218;6.564;2023-04-08T14:49:05;24.85;;;18.60;;
56455;SDS011;42354;53.218;6.564;2023-04-08T14:51:31;29.77;;;18.80;;
56455;SDS011;42354;53.218;6.564;2023-04-08T14:53:57;26.98;;;19.58;;